TENO2: Tenkiller Lake

Data processed at Fri Jul 13 2018 23:41


All information presented herein is the property of the government of the United States of America and may be revised or deleted at any time without prior notice.
Dissemination of this information without the expressed written consent of the Public Affairs Office, Tulsa District U.S. Army Corps of Engineers is strictly prohibited.
These data are gathered electronically and, as presented, have not undergone any form of quality control. These data are not guaranteed to be valid or correct.
Go to home page.
Go to station list.

Upstream stations:

Downstream station:
Previous Day
Next Day
Current Day
    
SHEF ID:       TENO2     Tenkiller Lake
STATION TYPE:  Reservoir
Normal Pool:  Bottom =   594.50, Top =   632.00

               PRECIP PRECIP(A) ELEVATION   STORAGE   TW-ELEV    INFLOW   RELEASE  AIR-TEMP  WIND-DIRWIND-SPEED REL-HUMID SOLAR-RAD   VOLTAGE  BAT-LOAD
                   in        in        ft     ac-ft        ft       cfs       cfs         F       deg       mph         %      W/m2      volt      volt
              Ccp-Rev   Ccp-Rev   Ccp-Rev   Ccp-Rev   Ccp-Rev  Regi-Rev  Regi-Rev   Ccp-Rev   Ccp-Rev   Ccp-Rev   Ccp-Rev   Ccp-Rev   Ccp-Rev   Ccp-Rev
(US/Central)
07/11 00:00      0.00      0.00    630.91    654197    482.37       375       115     74.93    195.40      0.42    100.23      1.00     13.79     13.18
07/11 01:00      0.00      0.00    630.91    654197    482.37       398       115     74.05    182.50      0.40    100.29      1.00     13.78     13.24
07/11 02:00      0.00      0.00    630.91    654197    482.37       115       115     73.27    191.10      0.39    100.35      0.00     13.79     13.24
07/11 03:00      0.00      0.00    630.91    654197    482.36       115       115     72.63    163.40      0.35    100.35      1.00     13.79     13.24
07/11 04:00      0.00      0.00    630.91    654197    482.36       115       115     71.74    135.90      0.39    100.42      0.00     13.79     13.24
07/11 05:00      0.00      0.00    630.91    654197    482.36       115       115     71.53    145.80      0.40    100.35      0.00     13.79     13.24
07/11 06:00      0.00      0.00    630.91    654197    482.36       115       115     71.08    157.10      0.37    100.29      1.00     13.78     13.24
07/11 07:00      0.00      0.00    630.91    654197    482.36       115       115     71.31    156.40      0.35    100.35      9.00     13.78     13.18
07/11 08:00      0.00      0.00    630.91    654197    482.36       115       115     76.24    113.60      0.40     99.93     88.00     13.78     13.18
07/11 09:00      0.00      0.00    630.91    654197    482.36       115       115     83.17    109.50      0.40     84.36    149.00     13.78     13.18
07/11 10:00      0.00      0.00    630.91    654197    482.35       115       115     86.90    145.40      0.36     69.95    452.00     13.79     13.18
07/11 11:00      0.00      0.00    630.91    654197    482.35       111       115     88.00    255.90      0.11     69.65    662.00     13.79     13.18
07/11 12:00      0.00      0.00    630.91    654197    482.34        88       115     90.32    188.20      0.47     60.25    792.00     13.79     13.18
07/11 13:00      0.00      0.00    630.91    654197    483.57        65       115     91.85    131.30      0.78     49.75    886.00     13.79     13.12
07/11 14:00      0.00      0.00    630.91    654197    487.04       919      3730     92.84    138.60      1.23     46.15    944.00     13.78     13.18
07/11 15:00      0.00      0.00    630.85    653441    487.05       896      3730     83.07    169.50      2.30     71.11    177.00     13.78     13.18
07/11 16:00      0.00      0.00    630.86    653567    486.92       877      3730     86.58    128.70      0.62     76.18    300.00     13.79     13.18
07/11 17:00      0.00      0.00    630.85    653441    486.90       877      3730     92.73    124.00      0.65     48.22    632.00     13.78     13.18
07/11 18:00      0.00      0.00    630.82    653064    486.47      1103      3730     89.33    142.50      0.57     65.93    426.00     13.78     13.18
07/11 19:00      0.13      0.12    630.81    652938    482.66       425       115     78.22    247.50      0.70    100.17    120.00     13.78     13.18
07/11 20:00      0.00      0.01    630.82    653064    482.42       425       115     79.32    158.70      0.28    100.42     54.00     13.79     13.18
07/11 21:00      0.00      0.00    630.82    653064    482.39       425       115     77.34    190.70      0.37    100.42     10.00     13.78     13.18
07/11 22:00      0.00      0.00    630.83    653190    482.37       724       115     76.14    166.30      0.40    100.54      0.00     13.79     13.18
07/11 23:00      0.00      0.00    630.82    653064    482.37       521       115     75.81    166.30      0.40    100.54      0.00     13.78     13.18